Time;durP1;ratioP1;P1;durP2;ratioP2;P2;SDS_P1;SDS_P2;PMS_P1;PMS_P2;Temp;Humidity;BMP_temperature;BMP_pressure;BME280_temperature;BME280_humidity;BME280_pressure;Samples;Min_cycle;Max_cycle;Signal;HPM_P1;HPM_P2
2022/02/26 00:01:25;;;;;;;;;;;;;;;;;;5042270;28;20293;-73
2022/02/26 00:03:51;;;;;;;;;;;;;;;;;;5043851;28;20001;-73
2022/02/26 00:06:16;;;;;;;;;;;;;;;;;;5041847;28;20264;-71
2022/02/26 00:08:41;;;;;;;;;;;;;;;;;;5043424;28;19932;-72
2022/02/26 00:11:07;;;;;;;;;;;;;;;;;;5060142;28;20296;-73
2022/02/26 00:13:32;;;;;;;;;;;;;;;;;;5043385;28;19926;-73
2022/02/26 00:15:58;;;;;;;;;;;;;;;;;;5057004;28;19920;-70
2022/02/26 00:18:23;;;;;;;;;;;;;;;;;;5063796;28;20038;-69
2022/02/26 00:20:49;;;;;;;;;;;;;;;;;;5042533;28;19926;-69
2022/02/26 00:23:14;;;;;;;;;;;;;;;;;;5041647;28;19985;-69
2022/02/26 00:25:39;;;;;;;;;;;;;;;;;;5060025;28;19942;-72
2022/02/26 00:28:05;;;;;;;;;;;;;;;;;;5059037;28;19920;-73
2022/02/26 00:30:30;;;;;;;;;;;;;;;;;;5063471;28;19971;-71
2022/02/26 00:32:55;;;;;;;;;;;;;;;;;;5061725;28;19916;-70
2022/02/26 00:35:21;;;;;;;;;;;;;;;;;;5062008;28;19916;-71
2022/02/26 00:37:46;;;;;;;;;;;;;;;;;;5058156;28;20278;-70
2022/02/26 00:40:11;;;;;;;;;;;;;;;;;;5043863;28;19931;-71
2022/02/26 00:42:37;;;;;;;;;;;;;;;;;;5039615;28;19958;-71
2022/02/26 00:45:03;;;;;;;;;;;;;;;;;;5061478;28;19955;-70
2022/02/26 00:47:28;;;;;;;;;;;;;;;;;;5063292;28;19924;-71
2022/02/26 00:49:54;;;;;;;;;;;;;;;;;;5056941;28;19921;-69
2022/02/26 00:52:24;;;;;;;;;;;;;;;;;;5062987;28;20011;-71
2022/02/26 00:54:50;;;;;;;;;;;;;;;;;;5061908;28;20269;-71
2022/02/26 00:57:16;;;;;;;;;;;;;;;;;;5062804;28;20003;-70
2022/02/26 00:59:41;;;;;;;;;;;;;;;;;;5038653;28;20053;-70
2022/02/26 01:02:07;;;;;;;;;;;;;;;;;;5056399;28;19921;-72
2022/02/26 01:04:34;;;;;;;;;;;;;;;;;;5062938;28;20363;-71
2022/02/26 01:06:59;;;;;;;;;;;;;;;;;;5038905;28;19924;-70
2022/02/26 01:09:25;;;;;;;;;;;;;;;;;;5038281;28;20289;-70
2022/02/26 01:11:51;;;;;;;;;;;;;;;;;;5062289;28;19967;-73
2022/02/26 01:14:16;;;;;;;;;;;;;;;;;;5056365;28;19920;-70
2022/02/26 01:16:42;;;;;;;;;;;;;;;;;;5063207;28;19924;-71
2022/02/26 01:19:08;;;;;;;;;;;;;;;;;;5061722;28;19935;-71
2022/02/26 01:21:33;;;;;;;;;;;;;;;;;;5055803;28;19962;-72
2022/02/26 01:23:59;;;;;;;;;;;;;;;;;;5057422;28;20003;-71
2022/02/26 01:26:25;;;;;;;;;;;;;;;;;;5060600;28;20321;-71
2022/02/26 01:28:50;;;;;;;;;;;;;;;;;;5039705;28;19921;-69
2022/02/26 01:31:16;;;;;;;;;;;;;;;;;;5060468;28;20399;-70
2022/02/26 01:33:41;;;;;;;;;;;;;;;;;;5039847;28;20373;-69
2022/02/26 01:36:07;;;;;;;;;;;;;;;;;;5037091;28;20348;-71
2022/02/26 01:38:32;;;;;;;;;;;;;;;;;;5056146;28;20264;-72
2022/02/26 01:40:58;;;;;;;;;;;;;;;;;;5059808;28;19959;-69
2022/02/26 01:43:24;;;;;;;;;;;;;;;;;;5040331;28;20390;-71
2022/02/26 01:45:49;;;;;;;;;;;;;;;;;;5058676;28;20377;-70
2022/02/26 01:48:14;;;;;;;;;;;;;;;;;;5040217;28;19944;-72
2022/02/26 01:50:40;;;;;;;;;;;;;;;;;;5044868;28;19917;-70
2022/02/26 01:53:07;;;;;;;;;;;;;;;;;;5041430;28;19923;-71
2022/02/26 01:55:32;;;;;;;;;;;;;;;;;;5058640;28;19927;-71
2022/02/26 01:57:57;;;;;;;;;;;;;;;;;;5037891;28;19916;-70
2022/02/26 02:00:23;;;;;;;;;;;;;;;;;;5059165;28;20416;-71
2022/02/26 02:02:49;;;;;;;;;;;;;;;;;;5044712;28;20296;-71
2022/02/26 02:05:14;;;;;;;;;;;;;;;;;;5040504;28;19964;-71
2022/02/26 02:07:40;;;;;;;;;;;;;;;;;;5059195;28;20291;-71
2022/02/26 02:10:06;;;;;;;;;;;;;;;;;;5044239;28;19928;-72
2022/02/26 02:12:31;;;;;;;;;;;;;;;;;;5062443;28;19923;-71
2022/02/26 02:14:56;;;;;;;;;;;;;;;;;;5059362;28;19927;-70
2022/02/26 02:17:23;;;;;;;;;;;;;;;;;;5040501;28;19927;-70
2022/02/26 02:19:49;;;;;;;;;;;;;;;;;;5042092;28;20301;-72
2022/02/26 02:22:21;;;;;;;;;;;;;;;;;;5040232;28;19924;-70
2022/02/26 02:24:47;;;;;;;;;;;;;;;;;;5043833;28;20356;-69
2022/02/26 02:27:13;;;;;;;;;;;;;;;;;;5040614;28;19932;-70
2022/02/26 02:29:38;;;;;;;;;;;;;;;;;;5058067;28;19927;-70
2022/02/26 02:32:04;;;;;;;;;;;;;;;;;;5058435;28;19916;-70
2022/02/26 02:34:29;;;;;;;;;;;;;;;;;;5057478;28;19967;-69
2022/02/26 02:36:55;;;;;;;;;;;;;;;;;;5048155;28;19917;-71
2022/02/26 02:39:20;;;;;;;;;;;;;;;;;;5057430;28;19964;-70
2022/02/26 02:41:45;;;;;;;;;;;;;;;;;;5059724;28;19924;-72
2022/02/26 02:44:13;;;;;;;;;;;;;;;;;;5057367;28;19916;-71
2022/02/26 02:46:39;;;;;;;;;;;;;;;;;;5043680;28;20399;-70
2022/02/26 02:49:05;;;;;;;;;;;;;;;;;;5062302;28;19952;-71
2022/02/26 02:51:30;;;;;;;;;;;;;;;;;;5043100;28;19978;-71
2022/02/26 02:53:56;;;;;;;;;;;;;;;;;;5045239;28;20036;-72
2022/02/26 02:56:21;;;;;;;;;;;;;;;;;;5060585;28;20348;-71
2022/02/26 02:58:46;;;;;;;;;;;;;;;;;;5065167;28;19921;-71
2022/02/26 03:01:12;;;;;;;;;;;;;;;;;;5058121;28;20328;-70
2022/02/26 03:03:37;;;;;;;;;;;;;;;;;;5063705;28;19916;-72
2022/02/26 03:06:02;;;;;;;;;;;;;;;;;;5042060;28;20392;-71
2022/02/26 03:08:28;;;;;;;;;;;;;;;;;;5063724;28;19924;-72
2022/02/26 03:10:55;;;;;;;;;;;;;;;;;;5058939;28;19917;-72
2022/02/26 03:13:21;;;;;;;;;;;;;;;;;;5061010;28;19967;-73
2022/02/26 03:15:50;;;;;;;;;;;;;;;;;;5059266;28;19952;-73
2022/02/26 03:18:19;;;;;;;;;;;;;;;;;;5064118;28;19916;-72
2022/02/26 03:20:44;;;;;;;;;;;;;;;;;;5042446;28;20403;-73
2022/02/26 03:23:10;;;;;;;;;;;;;;;;;;5063406;28;19917;-73
2022/02/26 03:25:36;;;;;;;;;;;;;;;;;;5058768;28;19917;-71
2022/02/26 03:28:01;;;;;;;;;;;;;;;;;;5049235;28;19920;-71
2022/02/26 03:30:27;;;;;;;;;;;;;;;;;;5063091;28;19917;-70
2022/02/26 03:32:52;;;;;;;;;;;;;;;;;;5058104;28;19931;-72
2022/02/26 03:35:18;;;;;;;;;;;;;;;;;;5052446;28;19917;-72
2022/02/26 03:37:43;;;;;;;;;;;;;;;;;;5052341;28;19912;-71
2022/02/26 03:40:09;;;;;;;;;;;;;;;;;;5039594;28;20292;-71
2022/02/26 03:42:37;;;;;;;;;;;;;;;;;;5058481;28;20194;-75
2022/02/26 03:45:03;;;;;;;;;;;;;;;;;;5045718;28;20416;-74
2022/02/26 03:47:28;;;;;;;;;;;;;;;;;;5058867;28;19931;-75
2022/02/26 03:49:54;;;;;;;;;;;;;;;;;;5046035;28;19928;-74
2022/02/26 03:52:22;;;;;;;;;;;;;;;;;;5058149;28;20395;-74
2022/02/26 03:54:48;;;;;;;;;;;;;;;;;;5040776;28;19956;-76
2022/02/26 03:57:14;;;;;;;;;;;;;;;;;;5045326;28;19955;-75
2022/02/26 03:59:39;;;;;;;;;;;;;;;;;;5039899;28;20171;-72
2022/02/26 04:02:04;;;;;;;;;;;;;;;;;;5039904;28;20258;-73
2022/02/26 04:04:30;;;;;;;;;;;;;;;;;;5063950;28;19943;-74
2022/02/26 04:06:55;;;;;;;;;;;;;;;;;;5039827;28;19940;-74
2022/02/26 04:09:21;;;;;;;;;;;;;;;;;;5064380;28;19970;-74
2022/02/26 04:11:46;;;;;;;;;;;;;;;;;;5064427;28;19966;-74
2022/02/26 04:14:12;;;;;;;;;;;;;;;;;;5057278;28;19921;-75
2022/02/26 04:16:37;;;;;;;;;;;;;;;;;;5057411;28;19971;-76
2022/02/26 04:19:03;;;;;;;;;;;;;;;;;;5064210;28;19920;-73
2022/02/26 04:21:29;;;;;;;;;;;;;;;;;;5057014;28;20403;-75
2022/02/26 04:23:55;;;;;;;;;;;;;;;;;;5058081;28;19917;-76
2022/02/26 04:26:22;;;;;;;;;;;;;;;;;;5063617;28;19942;-74
2022/02/26 04:28:47;;;;;;;;;;;;;;;;;;5051024;28;19928;-75
2022/02/26 04:31:13;;;;;;;;;;;;;;;;;;5063442;28;19916;-75
2022/02/26 04:33:38;;;;;;;;;;;;;;;;;;5039764;28;19970;-73
2022/02/26 04:36:04;;;;;;;;;;;;;;;;;;5057081;28;20281;-74
2022/02/26 04:38:29;;;;;;;;;;;;;;;;;;5062880;28;19920;-75
2022/02/26 04:40:55;;;;;;;;;;;;;;;;;;5063507;28;20360;-74
2022/02/26 04:43:20;;;;;;;;;;;;;;;;;;5058144;28;19927;-73
2022/02/26 04:45:46;;;;;;;;;;;;;;;;;;5038711;28;19916;-74
2022/02/26 04:48:11;;;;;;;;;;;;;;;;;;5060522;28;19932;-73
2022/02/26 04:50:37;;;;;;;;;;;;;;;;;;5056812;28;19923;-74
2022/02/26 04:53:02;;;;;;;;;;;;;;;;;;5058863;28;19950;-75
2022/02/26 04:55:29;;;;;;;;;;;;;;;;;;5043031;28;19917;-74
2022/02/26 04:57:54;;;;;;;;;;;;;;;;;;5040795;28;19938;-73
2022/02/26 05:00:19;;;;;;;;;;;;;;;;;;5059650;28;20419;-75
2022/02/26 05:02:45;;;;;;;;;;;;;;;;;;5063251;28;19939;-73
2022/02/26 05:05:10;;;;;;;;;;;;;;;;;;5058391;28;19917;-74
2022/02/26 05:07:36;;;;;;;;;;;;;;;;;;5059280;28;20368;-74
2022/02/26 05:10:01;;;;;;;;;;;;;;;;;;5056430;28;20360;-74
2022/02/26 05:12:26;;;;;;;;;;;;;;;;;;5062959;28;19964;-75
2022/02/26 05:14:54;;;;;;;;;;;;;;;;;;5062674;28;19924;-75
2022/02/26 05:17:19;;;;;;;;;;;;;;;;;;5038590;28;19981;-74
2022/02/26 05:19:45;;;;;;;;;;;;;;;;;;5057988;28;19916;-75
2022/02/26 05:22:10;;;;;;;;;;;;;;;;;;5038473;28;20349;-74
2022/02/26 05:24:35;;;;;;;;;;;;;;;;;;5041382;28;19928;-75
2022/02/26 05:27:01;;;;;;;;;;;;;;;;;;5063232;28;19917;-75
2022/02/26 05:29:26;;;;;;;;;;;;;;;;;;5041712;28;19929;-75
2022/02/26 05:31:51;;;;;;;;;;;;;;;;;;5041295;28;19916;-74
2022/02/26 05:34:17;;;;;;;;;;;;;;;;;;5060480;28;19916;-75
2022/02/26 05:36:42;;;;;;;;;;;;;;;;;;5058895;28;19924;-74
2022/02/26 05:39:09;;;;;;;;;;;;;;;;;;5042684;28;19964;-73
2022/02/26 05:41:35;;;;;;;;;;;;;;;;;;5057953;28;19925;-74
2022/02/26 05:44:00;;;;;;;;;;;;;;;;;;5062865;28;19921;-75
2022/02/26 05:46:25;;;;;;;;;;;;;;;;;;5060367;28;19921;-74
2022/02/26 05:48:51;;;;;;;;;;;;;;;;;;5038082;28;19925;-74
2022/02/26 05:51:16;;;;;;;;;;;;;;;;;;5057598;28;19967;-73
2022/02/26 05:53:41;;;;;;;;;;;;;;;;;;5043416;28;19923;-73
2022/02/26 05:56:07;;;;;;;;;;;;;;;;;;5038783;28;19920;-74
2022/02/26 05:58:33;;;;;;;;;;;;;;;;;;5061729;28;19924;-75
2022/02/26 06:00:59;;;;;;;;;;;;;;;;;;5039157;28;20386;-74
2022/02/26 06:03:24;;;;;;;;;;;;;;;;;;5061672;28;20002;-73
2022/02/26 06:05:49;;;;;;;;;;;;;;;;;;5056171;28;20280;-72
2022/02/26 06:08:15;;;;;;;;;;;;;;;;;;5056143;28;19920;-72
2022/02/26 06:10:40;;;;;;;;;;;;;;;;;;5056895;28;20316;-73
2022/02/26 06:13:06;;;;;;;;;;;;;;;;;;5056054;28;19921;-72
2022/02/26 06:15:32;;;;;;;;;;;;;;;;;;5062420;28;19920;-72
2022/02/26 06:17:57;;;;;;;;;;;;;;;;;;5056245;28;19924;-72
2022/02/26 06:20:23;;;;;;;;;;;;;;;;;;5062453;28;20283;-73
2022/02/26 06:22:49;;;;;;;;;;;;;;;;;;5039042;28;20361;-73
2022/02/26 06:25:14;;;;;;;;;;;;;;;;;;5059520;28;20364;-72
2022/02/26 06:27:41;;;;;;;;;;;;;;;;;;5065800;28;19924;-73
2022/02/26 06:30:07;;;;;;;;;;;;;;;;;;5053079;28;19927;-72
2022/02/26 06:32:33;;;;;;;;;;;;;;;;;;5065987;28;19952;-72
2022/02/26 06:34:58;;;;;;;;;;;;;;;;;;5042257;28;19986;-72
2022/02/26 06:37:24;;;;;;;;;;;;;;;;;;5066326;28;19920;-74
2022/02/26 06:39:49;;;;;;;;;;;;;;;;;;5065451;28;20035;-72
2022/02/26 06:42:14;;;;;;;;;;;;;;;;;;5042255;28;19917;-73
2022/02/26 06:44:40;;;;;;;;;;;;;;;;;;5064734;28;19935;-71
2022/02/26 06:47:06;;;;;;;;;;;;;;;;;;5060595;28;19930;-73
2022/02/26 06:49:32;;;;;;;;;;;;;;;;;;5057990;28;19920;-72
2022/02/26 06:51:57;;;;;;;;;;;;;;;;;;5043109;28;20553;-73
2022/02/26 06:54:23;;;;;;;;;;;;;;;;;;5059285;28;19979;-73
2022/02/26 06:56:48;;;;;;;;;;;;;;;;;;5052243;28;19916;-72
2022/02/26 06:59:13;;;;;;;;;;;;;;;;;;5061059;28;19929;-73
2022/02/26 07:01:40;;;;;;;;;;;;;;;;;;5056948;28;19916;-73
2022/02/26 07:04:06;;;;;;;;;;;;;;;;;;5061140;28;19917;-73
2022/02/26 07:06:31;;;;;;;;;;;;;;;;;;5058822;28;19944;-72
2022/02/26 07:08:56;;;;;;;;;;;;;;;;;;5055944;28;19943;-73
2022/02/26 07:11:22;;;;;;;;;;;;;;;;;;5069132;28;20264;-73
2022/02/26 07:13:47;;;;;;;;;;;;;;;;;;5045840;28;20315;-73
2022/02/26 07:16:13;;;;;;;;;;;;;;;;;;5064484;28;19947;-72
2022/02/26 07:18:38;;;;;;;;;;;;;;;;;;5062834;28;19916;-72
2022/02/26 07:21:05;;;;;;;;;;;;;;;;;;5059167;28;19996;-72
2022/02/26 07:23:30;;;;;;;;;;;;;;;;;;5055155;28;20194;-73
2022/02/26 07:25:56;;;;;;;;;;;;;;;;;;5044222;28;19978;-74
2022/02/26 07:28:22;;;;;;;;;;;;;;;;;;5058417;28;19964;-75
2022/02/26 07:30:51;;;;;;;;;;;;;;;;;;5059010;28;20403;-74
2022/02/26 07:33:17;;;;;;;;;;;;;;;;;;5061744;28;20030;-72
2022/02/26 07:35:42;;;;;;;;;;;;;;;;;;5064843;28;20428;-74
2022/02/26 07:38:08;;;;;;;;;;;;;;;;;;5040395;28;19950;-75
2022/02/26 07:40:33;;;;;;;;;;;;;;;;;;5064718;28;19924;-74
2022/02/26 07:42:58;;;;;;;;;;;;;;;;;;5064981;28;20011;-75
2022/02/26 07:45:24;;;;;;;;;;;;;;;;;;5062403;28;20364;-74
2022/02/26 07:47:49;;;;;;;;;;;;;;;;;;5060345;28;20427;-75
2022/02/26 07:50:15;;;;;;;;;;;;;;;;;;5062660;28;20031;-74
2022/02/26 07:52:42;;;;;;;;;;;;;;;;;;5067239;28;19917;-74
2022/02/26 07:55:10;;;;;;;;;;;;;;;;;;5062391;28;19912;-75
2022/02/26 07:57:35;;;;;;;;;;;;;;;;;;5042693;28;19932;-77
2022/02/26 08:00:01;;;;;;;;;;;;;;;;;;5044702;28;19994;-74
2022/02/26 08:02:27;;;;;;;;;;;;;;;;;;5060301;28;19998;-75
2022/02/26 08:04:52;;;;;;;;;;;;;;;;;;5044610;28;19920;-75
2022/02/26 08:07:18;;;;;;;;;;;;;;;;;;5064393;28;19916;-76
2022/02/26 08:09:43;;;;;;;;;;;;;;;;;;5040938;28;19931;-74
2022/02/26 08:12:09;;;;;;;;;;;;;;;;;;5046121;28;19916;-74
2022/02/26 08:14:35;;;;;;;;;;;;;;;;;;5062217;28;19923;-75
2022/02/26 08:17:00;;;;;;;;;;;;;;;;;;5041188;28;19917;-75
2022/02/26 08:19:25;;;;;;;;;;;;;;;;;;5044595;28;19963;-76
2022/02/26 08:21:51;;;;;;;;;;;;;;;;;;5046566;28;20011;-76
2022/02/26 08:24:17;;;;;;;;;;;;;;;;;;5040443;28;19917;-76
2022/02/26 08:26:44;;;;;;;;;;;;;;;;;;5063985;28;19924;-75
2022/02/26 08:29:09;;;;;;;;;;;;;;;;;;5061175;28;20007;-75
2022/02/26 08:31:35;;;;;;;;;;;;;;;;;;5057354;28;20039;-75
2022/02/26 08:34:00;;;;;;;;;;;;;;;;;;5062944;28;19916;-73
2022/02/26 08:36:25;;;;;;;;;;;;;;;;;;5057491;28;19916;-76
2022/02/26 08:38:52;;;;;;;;;;;;;;;;;;5063223;28;20343;-74
2022/02/26 08:41:18;;;;;;;;;;;;;;;;;;5056781;28;19924;-74
2022/02/26 08:43:43;;;;;;;;;;;;;;;;;;5046454;28;19921;-76
2022/02/26 08:46:08;;;;;;;;;;;;;;;;;;5038275;28;19953;-74
2022/02/26 08:48:34;;;;;;;;;;;;;;;;;;5062045;28;19970;-75
2022/02/26 08:50:59;;;;;;;;;;;;;;;;;;5064334;28;19916;-74
2022/02/26 08:53:25;;;;;;;;;;;;;;;;;;5057552;28;20269;-73
2022/02/26 08:55:50;;;;;;;;;;;;;;;;;;5045838;28;19946;-74
2022/02/26 08:58:16;;;;;;;;;;;;;;;;;;5057257;28;19917;-76
2022/02/26 09:00:42;;;;;;;;;;;;;;;;;;5065493;28;19927;-74
2022/02/26 09:03:07;;;;;;;;;;;;;;;;;;5049139;28;19984;-72
2022/02/26 09:05:32;;;;;;;;;;;;;;;;;;5053085;28;19929;-75
2022/02/26 09:07:58;;;;;;;;;;;;;;;;;;5059270;28;19924;-74
2022/02/26 09:10:23;;;;;;;;;;;;;;;;;;5062538;28;19920;-74
2022/02/26 09:12:50;;;;;;;;;;;;;;;;;;5057927;28;20400;-73
2022/02/26 09:15:16;;;;;;;;;;;;;;;;;;5043798;28;19951;-74
2022/02/26 09:17:43;;;;;;;;;;;;;;;;;;5045564;28;19943;-75
2022/02/26 09:20:10;;;;;;;;;;;;;;;;;;5033204;28;19927;-73
2022/02/26 09:22:36;;;;;;;;;;;;;;;;;;5044954;28;19924;-73
2022/02/26 09:25:01;;;;;;;;;;;;;;;;;;5061601;28;20112;-73
2022/02/26 09:27:27;;;;;;;;;;;;;;;;;;5049666;28;19921;-75
2022/02/26 09:29:52;;;;;;;;;;;;;;;;;;5061002;28;19927;-75
2022/02/26 09:32:18;;;;;;;;;;;;;;;;;;5055929;28;20344;-75
2022/02/26 09:34:44;;;;;;;;;;;;;;;;;;5044951;28;19973;-74
2022/02/26 09:37:09;;;;;;;;;;;;;;;;;;5059183;28;19920;-75
2022/02/26 09:39:34;;;;;;;;;;;;;;;;;;5063368;28;19924;-74
2022/02/26 09:42:00;;;;;;;;;;;;;;;;;;5059968;28;19968;-74
2022/02/26 09:44:25;;;;;;;;;;;;;;;;;;5041155;28;20333;-75
2022/02/26 09:46:51;;;;;;;;;;;;;;;;;;5038329;28;19917;-75
2022/02/26 09:49:17;;;;;;;;;;;;;;;;;;5038122;28;19925;-73
2022/02/26 09:51:43;;;;;;;;;;;;;;;;;;5059171;28;19924;-75
2022/02/26 09:54:08;;;;;;;;;;;;;;;;;;5036741;28;19964;-74
2022/02/26 09:56:34;;;;;;;;;;;;;;;;;;5060008;28;20035;-75
2022/02/26 09:58:59;;;;;;;;;;;;;;;;;;5060481;28;19983;-74
2022/02/26 10:01:25;;;;;;;;;;;;;;;;;;5044670;28;19948;-75
2022/02/26 10:03:50;;;;;;;;;;;;;;;;;;5042385;28;19917;-75
2022/02/26 10:06:17;;;;;;;;;;;;;;;;;;5064266;28;19961;-75
2022/02/26 10:08:44;;;;;;;;;;;;;;;;;;5062527;28;20016;-73
2022/02/26 10:11:22;;;;;;;;;;;;;;;;;;5064192;28;19923;-73
2022/02/26 10:13:47;;;;;;;;;;;;;;;;;;5064016;28;19920;-75
2022/02/26 10:16:13;;;;;;;;;;;;;;;;;;5044547;28;19928;-73
2022/02/26 10:18:49;;;;;;;;;;;;;;;;;;5032135;28;19925;-75
2022/02/26 10:21:26;;;;;;;;;;;;;;;;;;5047036;28;20026;-76
2022/02/26 10:23:53;;;;;;;;;;;;;;;;;;5046859;28;19916;-74
2022/02/26 10:26:23;;;;;;;;;;;;;;;;;;5059959;28;19975;-73
2022/02/26 10:28:48;;;;;;;;;;;;;;;;;;5065726;28;20392;-73
2022/02/26 10:31:14;;;;;;;;;;;;;;;;;;5066899;28;19923;-74
2022/02/26 10:33:40;;;;;;;;;;;;;;;;;;5062148;28;20007;-74
2022/02/26 10:36:06;;;;;;;;;;;;;;;;;;5048363;28;20010;-73
2022/02/26 10:38:33;;;;;;;;;;;;;;;;;;5048013;28;19916;-74
2022/02/26 10:41:04;;;;;;;;;;;;;;;;;;5046403;28;19956;-73
2022/02/26 10:43:49;;;;;;;;;;;;;;;;;;5054214;28;19920;-76
2022/02/26 10:46:30;;;;;;;;;;;;;;;;;;5062284;28;19943;-77
2022/02/26 10:48:57;;;;;;;;;;;;;;;;;;5064321;28;20452;-75
2022/02/26 10:51:27;;;;;;;;;;;;;;;;;;5042677;28;20065;-74
2022/02/26 10:53:53;;;;;;;;;;;;;;;;;;5047253;28;20288;-75
2022/02/26 10:56:18;;;;;;;;;;;;;;;;;;5066476;28;19921;-73
2022/02/26 10:58:44;;;;;;;;;;;;;;;;;;5064395;28;20292;-75
2022/02/26 11:01:11;;;;;;;;;;;;;;;;;;5042641;28;19924;-74
2022/02/26 11:03:37;;;;;;;;;;;;;;;;;;5064586;28;20357;-75
2022/02/26 11:06:05;;;;;;;;;;;;;;;;;;5060261;28;19917;-75
2022/02/26 11:08:31;;;;;;;;;;;;;;;;;;5040407;28;20055;-74
2022/02/26 11:10:58;;;;;;;;;;;;;;;;;;5059049;28;19951;-73
2022/02/26 11:13:23;;;;;;;;;;;;;;;;;;5046215;28;20315;-75
2022/02/26 11:15:51;;;;;;;;;;;;;;;;;;5058537;28;19927;-75
2022/02/26 11:18:17;;;;;;;;;;;;;;;;;;5066709;28;19917;-74
2022/02/26 11:20:43;;;;;;;;;;;;;;;;;;5063904;28;19965;-75
2022/02/26 11:23:09;;;;;;;;;;;;;;;;;;5058729;28;20388;-75
2022/02/26 11:25:35;;;;;;;;;;;;;;;;;;5035273;28;19917;-75
2022/02/26 11:28:01;;;;;;;;;;;;;;;;;;5062044;28;20026;-75
2022/02/26 11:30:29;;;;;;;;;;;;;;;;;;5046733;28;19973;-74
2022/02/26 11:32:55;;;;;;;;;;;;;;;;;;5064879;28;19956;-76
2022/02/26 11:35:24;;;;;;;;;;;;;;;;;;5040187;28;20384;-75
2022/02/26 11:37:50;;;;;;;;;;;;;;;;;;5059514;28;19953;-75
2022/02/26 11:40:16;;;;;;;;;;;;;;;;;;5062781;28;19920;-75
2022/02/26 11:42:42;;;;;;;;;;;;;;;;;;5041598;28;19925;-75
2022/02/26 11:45:10;;;;;;;;;;;;;;;;;;5063364;28;19993;-75
2022/02/26 11:47:38;;;;;;;;;;;;;;;;;;5042099;28;19917;-75
2022/02/26 11:50:04;;;;;;;;;;;;;;;;;;5064260;28;19924;-74
2022/02/26 11:52:36;;;;;;;;;;;;;;;;;;5040413;28;19946;-74
2022/02/26 11:55:02;;;;;;;;;;;;;;;;;;5040406;28;19943;-76
2022/02/26 11:57:30;;;;;;;;;;;;;;;;;;5071049;28;19920;-75
2022/02/26 12:00:08;;;;;;;;;;;;;;;;;;5058434;28;20003;-75
2022/02/26 12:02:33;;;;;;;;;;;;;;;;;;5041824;28;19924;-75
2022/02/26 12:05:00;;;;;;;;;;;;;;;;;;5045217;28;19916;-75
2022/02/26 12:07:30;;;;;;;;;;;;;;;;;;5039906;28;19939;-76
2022/02/26 12:09:56;;;;;;;;;;;;;;;;;;5046231;28;19921;-75
2022/02/26 12:12:33;;;;;;;;;;;;;;;;;;5064192;28;19917;-74
2022/02/26 12:14:58;;;;;;;;;;;;;;;;;;5057976;28;19966;-73
2022/02/26 12:17:24;;;;;;;;;;;;;;;;;;5060424;28;19920;-75
2022/02/26 12:19:54;;;;;;;;;;;;;;;;;;5042796;28;19931;-75
2022/02/26 12:22:21;;;;;;;;;;;;;;;;;;5041781;28;19916;-75
2022/02/26 12:24:47;;;;;;;;;;;;;;;;;;5045991;28;19947;-74
2022/02/26 12:27:13;;;;;;;;;;;;;;;;;;5067324;28;19947;-74
2022/02/26 12:29:45;;;;;;;;;;;;;;;;;;5061450;28;19924;-75
2022/02/26 12:32:10;;;;;;;;;;;;;;;;;;5060032;28;20296;-74
2022/02/26 12:34:38;;;;;;;;;;;;;;;;;;5060749;28;20393;-74
2022/02/26 12:37:12;;;;;;;;;;;;;;;;;;5060066;28;19925;-75
2022/02/26 12:39:45;;;;;;;;;;;;;;;;;;5044420;28;20010;-75
2022/02/26 12:42:16;;;;;;;;;;;;;;;;;;5057068;28;19931;-74
2022/02/26 12:44:42;;;;;;;;;;;;;;;;;;5045841;28;20427;-75
2022/02/26 12:47:08;;;;;;;;;;;;;;;;;;5057319;28;20026;-73
2022/02/26 12:49:34;;;;;;;;;;;;;;;;;;5045714;28;19944;-74
2022/02/26 12:51:59;;;;;;;;;;;;;;;;;;5061901;28;19922;-75
2022/02/26 12:54:33;;;;;;;;;;;;;;;;;;5056818;28;20424;-74
2022/02/26 12:56:58;;;;;;;;;;;;;;;;;;5032620;28;20426;-74
2022/02/26 12:59:23;;;;;;;;;;;;;;;;;;5062732;28;19921;-72
2022/02/26 13:01:50;;;;;;;;;;;;;;;;;;5056114;28;20292;-76
2022/02/26 13:04:21;;;;;;;;;;;;;;;;;;5050866;28;19923;-72
2022/02/26 13:06:54;;;;;;;;;;;;;;;;;;5062267;28;19926;-74
2022/02/26 13:09:20;;;;;;;;;;;;;;;;;;5057853;28;19937;-73
2022/02/26 13:11:47;;;;;;;;;;;;;;;;;;5062810;28;20014;-74
2022/02/26 13:14:13;;;;;;;;;;;;;;;;;;5042786;28;19963;-74
2022/02/26 13:16:42;;;;;;;;;;;;;;;;;;5039330;28;19964;-73
2022/02/26 13:19:08;;;;;;;;;;;;;;;;;;5038110;28;20296;-74
2022/02/26 13:21:34;;;;;;;;;;;;;;;;;;5060928;28;19920;-74
2022/02/26 13:24:01;;;;;;;;;;;;;;;;;;5022954;28;20043;-73
2022/02/26 13:26:27;;;;;;;;;;;;;;;;;;5042116;28;20006;-74
2022/02/26 13:28:56;;;;;;;;;;;;;;;;;;5056309;28;20032;-73
2022/02/26 13:31:30;;;;;;;;;;;;;;;;;;5055825;28;20006;-75
2022/02/26 13:34:09;;;;;;;;;;;;;;;;;;5058927;28;19924;-73
2022/02/26 13:36:36;;;;;;;;;;;;;;;;;;5040345;28;19991;-74
2022/02/26 13:39:02;;;;;;;;;;;;;;;;;;5059531;28;20435;-74
2022/02/26 13:41:27;;;;;;;;;;;;;;;;;;5057530;28;19986;-75
2022/02/26 13:43:53;;;;;;;;;;;;;;;;;;5060709;28;19943;-73
2022/02/26 13:46:19;;;;;;;;;;;;;;;;;;5039588;28;19936;-73
2022/02/26 13:48:45;;;;;;;;;;;;;;;;;;5059966;28;20010;-73
2022/02/26 13:51:10;;;;;;;;;;;;;;;;;;5062281;28;19916;-73
2022/02/26 13:53:36;;;;;;;;;;;;;;;;;;5053963;28;19928;-73
2022/02/26 13:56:01;;;;;;;;;;;;;;;;;;5040261;28;20297;-75
2022/02/26 13:58:28;;;;;;;;;;;;;;;;;;5059384;28;20232;-75
2022/02/26 14:01:03;;;;;;;;;;;;;;;;;;5058210;28;19935;-74
2022/02/26 14:03:28;;;;;;;;;;;;;;;;;;5042734;28;19957;-74
2022/02/26 14:05:54;;;;;;;;;;;;;;;;;;5057859;28;19924;-73
2022/02/26 14:08:19;;;;;;;;;;;;;;;;;;5059882;28;19964;-73
2022/02/26 14:10:45;;;;;;;;;;;;;;;;;;5055715;28;19916;-73
2022/02/26 14:13:15;;;;;;;;;;;;;;;;;;5055223;28;20341;-73
2022/02/26 14:15:42;;;;;;;;;;;;;;;;;;5022500;28;20011;-74
2022/02/26 14:18:07;;;;;;;;;;;;;;;;;;5059836;28;20264;-73
2022/02/26 14:20:34;;;;;;;;;;;;;;;;;;5039827;28;19920;-73
2022/02/26 14:23:07;;;;;;;;;;;;;;;;;;5044319;28;19916;-73
2022/02/26 14:25:33;;;;;;;;;;;;;;;;;;5025938;28;19928;-72
2022/02/26 14:27:58;;;;;;;;;;;;;;;;;;5038614;28;19917;-73
2022/02/26 14:30:24;;;;;;;;;;;;;;;;;;5055124;28;19935;-74
2022/02/26 14:32:51;;;;;;;;;;;;;;;;;;5060300;28;19917;-74
2022/02/26 14:35:17;;;;;;;;;;;;;;;;;;5038585;28;20388;-73
2022/02/26 14:37:42;;;;;;;;;;;;;;;;;;5042388;28;19921;-73
2022/02/26 14:40:10;;;;;;;;;;;;;;;;;;5064137;28;19928;-73
2022/02/26 14:42:36;;;;;;;;;;;;;;;;;;5062428;28;20011;-74
2022/02/26 14:45:02;;;;;;;;;;;;;;;;;;5044910;28;19920;-73
2022/02/26 14:47:28;;;;;;;;;;;;;;;;;;5062639;28;20403;-74
2022/02/26 14:49:53;;;;;;;;;;;;;;;;;;5065204;28;19936;-74
2022/02/26 14:52:18;;;;;;;;;;;;;;;;;;5060812;28;19924;-74
2022/02/26 14:54:44;;;;;;;;;;;;;;;;;;5059320;28;20342;-72
2022/02/26 14:57:09;;;;;;;;;;;;;;;;;;5058797;28;19924;-73
2022/02/26 14:59:35;;;;;;;;;;;;;;;;;;5062487;28;19927;-73
2022/02/26 15:02:00;;;;;;;;;;;;;;;;;;5060376;28;19948;-73
2022/02/26 15:04:27;;;;;;;;;;;;;;;;;;5061033;28;19931;-73
2022/02/26 15:06:52;;;;;;;;;;;;;;;;;;5061361;28;19956;-73
2022/02/26 15:09:17;;;;;;;;;;;;;;;;;;5060340;28;20444;-74
2022/02/26 15:11:43;;;;;;;;;;;;;;;;;;5043807;28;20016;-73
2022/02/26 15:14:09;;;;;;;;;;;;;;;;;;5061250;28;19916;-72
2022/02/26 15:16:34;;;;;;;;;;;;;;;;;;5061793;28;19916;-74
2022/02/26 15:19:00;;;;;;;;;;;;;;;;;;5043481;28;20011;-74
2022/02/26 15:21:26;;;;;;;;;;;;;;;;;;5043635;28;20451;-74
2022/02/26 15:23:51;;;;;;;;;;;;;;;;;;5061072;28;20030;-73
2022/02/26 15:26:17;;;;;;;;;;;;;;;;;;5062160;28;19916;-73
2022/02/26 15:28:42;;;;;;;;;;;;;;;;;;5042736;28;19960;-73
2022/02/26 15:31:08;;;;;;;;;;;;;;;;;;5064766;28;19916;-73
2022/02/26 15:33:33;;;;;;;;;;;;;;;;;;5064648;28;20114;-73
2022/02/26 15:36:00;;;;;;;;;;;;;;;;;;5069901;28;20039;-73
2022/02/26 15:38:25;;;;;;;;;;;;;;;;;;5058207;28;19916;-73
2022/02/26 15:40:51;;;;;;;;;;;;;;;;;;5059248;28;19947;-73
2022/02/26 15:43:16;;;;;;;;;;;;;;;;;;5063351;28;20015;-73
2022/02/26 15:45:41;;;;;;;;;;;;;;;;;;5057625;28;20312;-73
2022/02/26 15:48:07;;;;;;;;;;;;;;;;;;5064517;28;19916;-74
2022/02/26 15:50:32;;;;;;;;;;;;;;;;;;5063501;28;19925;-73
2022/02/26 15:52:58;;;;;;;;;;;;;;;;;;5058784;28;20668;-74
2022/02/26 15:55:23;;;;;;;;;;;;;;;;;;5063346;28;20288;-73
2022/02/26 15:57:48;;;;;;;;;;;;;;;;;;5058276;28;19939;-73
2022/02/26 16:00:14;;;;;;;;;;;;;;;;;;5057522;28;19924;-73
2022/02/26 16:02:40;;;;;;;;;;;;;;;;;;5046146;28;19923;-73
2022/02/26 16:05:06;;;;;;;;;;;;;;;;;;5057534;28;19962;-73
2022/02/26 16:07:33;;;;;;;;;;;;;;;;;;5057841;28;19917;-74
2022/02/26 16:10:00;;;;;;;;;;;;;;;;;;5046083;28;20011;-74
2022/02/26 16:12:29;;;;;;;;;;;;;;;;;;5057615;28;20371;-74
2022/02/26 16:14:54;;;;;;;;;;;;;;;;;;5063885;28;19924;-74
2022/02/26 16:17:20;;;;;;;;;;;;;;;;;;5022736;28;19971;-74
2022/02/26 16:19:45;;;;;;;;;;;;;;;;;;5063695;28;19961;-74
2022/02/26 16:22:11;;;;;;;;;;;;;;;;;;5058332;28;19924;-74
2022/02/26 16:24:36;;;;;;;;;;;;;;;;;;5057259;28;19924;-74
2022/02/26 16:27:02;;;;;;;;;;;;;;;;;;5046738;28;19916;-74
2022/02/26 16:29:27;;;;;;;;;;;;;;;;;;5057841;28;19929;-74
2022/02/26 16:31:53;;;;;;;;;;;;;;;;;;5056577;28;20415;-73
2022/02/26 16:34:18;;;;;;;;;;;;;;;;;;5057652;28;20011;-73
2022/02/26 16:36:43;;;;;;;;;;;;;;;;;;5062593;28;20384;-72
2022/02/26 16:39:09;;;;;;;;;;;;;;;;;;5058082;28;20376;-74